createdAt,value
2023-05-03T00:04:00.506Z,8.86
2023-05-03T00:09:04.904Z,8.89
2023-05-03T00:14:09.121Z,8.83
2023-05-03T00:19:20.915Z,8.73
2023-05-03T00:24:32.555Z,8.71
2023-05-03T00:29:36.599Z,8.65
2023-05-03T00:34:40.554Z,8.72
2023-05-03T00:39:44.494Z,8.75
2023-05-03T00:44:53.316Z,8.73
2023-05-03T00:49:58.164Z,8.71
2023-05-03T00:55:02.679Z,8.65
2023-05-03T01:00:09.676Z,8.72
2023-05-03T01:05:13.933Z,8.73
2023-05-03T01:10:43.300Z,8.70
2023-05-03T01:15:59.283Z,8.71
2023-05-03T01:21:05.676Z,8.68
2023-05-03T01:26:19.154Z,8.73
2023-05-03T01:31:30.747Z,8.78
2023-05-03T01:36:36.499Z,8.72
2023-05-03T01:41:42.581Z,8.75
2023-05-03T01:46:47.302Z,8.68
2023-05-03T01:51:50.917Z,8.70
2023-05-03T01:56:54.925Z,8.66
2023-05-03T02:01:58.872Z,8.68
2023-05-03T02:07:02.969Z,8.70
2023-05-03T02:12:07.276Z,8.72
2023-05-03T02:17:11.895Z,8.71
2023-05-03T02:22:15.420Z,8.66
2023-05-03T02:27:19.402Z,8.59
2023-05-03T02:32:24.228Z,8.58
2023-05-03T02:37:28.448Z,8.67
2023-05-03T02:42:33.835Z,8.64
2023-05-03T02:47:38.497Z,8.67
2023-05-03T02:52:43.248Z,8.58
2023-05-03T02:57:46.732Z,8.67
2023-05-03T03:02:55.411Z,8.57
2023-05-03T03:07:59.764Z,8.57
2023-05-03T03:13:04.113Z,8.60
2023-05-03T03:18:13.978Z,8.57
2023-05-03T03:23:17.643Z,8.54
2023-05-03T03:28:22.133Z,8.50
2023-05-03T03:33:26.529Z,8.53
2023-05-03T03:38:36.178Z,8.59
2023-05-03T03:43:43.867Z,8.56
2023-05-03T03:48:52.348Z,8.54
2023-05-03T03:53:57.880Z,8.59
2023-05-03T03:59:05.735Z,8.53
2023-05-03T04:04:10.160Z,8.54
2023-05-03T04:09:14.866Z,8.53
2023-05-03T04:14:18.791Z,8.46
2023-05-03T04:19:26.299Z,8.49
2023-05-03T04:24:31.142Z,8.55
2023-05-03T04:29:35.263Z,8.55
2023-05-03T04:34:39.456Z,8.58
2023-05-03T04:39:43.045Z,8.59
2023-05-03T04:44:46.587Z,8.65
2023-05-03T04:49:51.040Z,8.46
2023-05-03T04:54:54.921Z,8.82
2023-05-03T05:00:09.101Z,8.72
2023-05-03T05:05:20.547Z,8.91
2023-05-03T05:10:25.266Z,8.90
2023-05-03T05:15:30.706Z,9.04
2023-05-03T05:20:35.548Z,9.13
2023-05-03T05:25:40.634Z,9.19
2023-05-03T05:30:44.349Z,9.33
2023-05-03T05:35:49.576Z,9.55
2023-05-03T05:40:57.628Z,9.75
2023-05-03T05:46:02.006Z,10.05
2023-05-03T05:51:06.444Z,10.40
2023-05-03T05:56:11.601Z,10.54
2023-05-03T06:01:15.811Z,10.97
2023-05-03T06:06:19.325Z,11.51
2023-05-03T06:11:22.561Z,11.89
2023-05-03T06:16:26.546Z,11.80
2023-05-03T06:21:30.515Z,12.03
2023-05-03T06:26:33.730Z,12.20
2023-05-03T06:31:38.565Z,12.27
2023-05-03T06:36:42.072Z,13.63
2023-05-03T06:41:45.387Z,14.78
2023-05-03T06:46:49.662Z,14.70
2023-05-03T06:51:53.104Z,14.46
2023-05-03T06:56:56.821Z,16.27
2023-05-03T07:02:00.146Z,16.38
2023-05-03T07:07:03.393Z,15.92
2023-05-03T07:12:07.874Z,15.30
2023-05-03T07:17:11.411Z,15.10
2023-05-03T07:22:14.963Z,15.44
2023-05-03T07:27:18.620Z,16.08
2023-05-03T07:32:22.780Z,16.38
2023-05-03T07:37:28.210Z,15.69
2023-05-03T07:42:31.675Z,15.86
2023-05-03T07:47:38.321Z,15.77
2023-05-03T07:52:43.728Z,15.71
2023-05-03T07:57:47.392Z,16.16
2023-05-03T08:02:50.695Z,17.05
2023-05-03T08:07:53.947Z,16.89
2023-05-03T08:12:58.033Z,18.21
2023-05-03T08:18:01.763Z,17.20
2023-05-03T08:23:05.754Z,16.78
2023-05-03T08:28:09.309Z,18.16
2023-05-03T08:33:13.457Z,17.79
2023-05-03T08:38:17.576Z,17.72
2023-05-03T08:43:22.892Z,16.35
2023-05-03T08:48:27.720Z,16.87
2023-05-03T08:53:33.457Z,16.98
2023-05-03T08:58:39.036Z,17.56
2023-05-03T09:03:54.045Z,18.75
2023-05-03T09:08:58.701Z,19.35
2023-05-03T09:14:13.180Z,18.70
2023-05-03T09:19:17.416Z,19.96
2023-05-03T09:24:22.584Z,19.68
2023-05-03T09:29:31.744Z,19.25
2023-05-03T09:34:37.491Z,18.92
2023-05-03T09:39:46.030Z,18.95
2023-05-03T09:44:54.301Z,18.46
2023-05-03T09:49:57.872Z,18.67
2023-05-03T09:55:01.397Z,18.39
2023-05-03T10:00:05.519Z,18.04
2023-05-03T10:05:16.757Z,17.43
2023-05-03T10:10:21.714Z,16.95
2023-05-03T10:15:27.748Z,17.00
2023-05-03T10:20:55.084Z,16.65
2023-05-03T10:26:10.007Z,15.75
2023-05-03T10:31:49.018Z,15.24
2023-05-03T10:36:54.519Z,15.27
2023-05-03T10:42:08.644Z,15.39
2023-05-03T10:47:19.752Z,15.25
2023-05-03T10:52:41.401Z,15.15
2023-05-03T10:57:48.628Z,15.16
2023-05-03T11:03:13.831Z,15.19
2023-05-03T11:08:22.268Z,15.37
2023-05-03T11:13:25.590Z,15.70
2023-05-03T11:18:29.084Z,15.17
2023-05-03T11:23:33.088Z,15.21
2023-05-03T11:28:55.834Z,14.96
2023-05-03T11:33:59.932Z,14.99
2023-05-03T11:39:06.067Z,15.18
2023-05-03T11:44:16.891Z,15.23
2023-05-03T11:49:20.909Z,15.44
2023-05-03T11:54:27.330Z,15.57
2023-05-03T11:59:41.485Z,15.74
2023-05-03T12:04:46.260Z,16.00
2023-05-03T12:10:00.919Z,15.94
2023-05-03T12:15:16.225Z,16.21
2023-05-03T12:25:34.897Z,16.42
2023-05-03T12:30:40.590Z,16.20
2023-05-03T12:35:47.709Z,16.09
2023-05-03T12:40:51.884Z,16.00
2023-05-03T12:46:20.173Z,15.82
2023-05-03T12:51:22.843Z,15.49
2023-05-03T12:56:32.735Z,15.24
2023-05-03T13:02:38.761Z,15.24
2023-05-03T13:07:01.803Z,15.70
2023-05-03T13:12:05.497Z,15.84
2023-05-03T13:17:08.755Z,15.67
2023-05-03T13:22:13.282Z,15.99
2023-05-03T13:27:18.475Z,16.02
2023-05-03T13:32:21.965Z,16.02
2023-05-03T13:37:25.721Z,16.56
2023-05-03T13:42:30.186Z,17.14
2023-05-03T13:47:53.006Z,18.25
2023-05-03T13:52:57.269Z,19.67
2023-05-03T13:58:01.407Z,20.85
2023-05-03T14:03:05.046Z,20.79
2023-05-03T14:08:09.018Z,20.20
2023-05-03T14:13:13.792Z,19.53
2023-05-03T14:18:17.877Z,19.58
2023-05-03T14:23:21.357Z,18.42
2023-05-03T14:28:24.556Z,17.29
2023-05-03T14:33:28.431Z,17.80
2023-05-03T14:38:32.343Z,19.17
2023-05-03T14:43:35.565Z,17.78
2023-05-03T14:48:39.572Z,17.04
2023-05-03T14:53:43.201Z,16.33
2023-05-03T14:58:46.497Z,16.13
2023-05-03T15:03:50.339Z,15.97
2023-05-03T15:08:54.847Z,16.06
2023-05-03T15:13:59.197Z,15.84
2023-05-03T15:19:03.056Z,15.81
2023-05-03T15:24:07.350Z,15.50
2023-05-03T15:29:11.376Z,15.42
2023-05-03T15:34:15.608Z,15.42
2023-05-03T15:39:18.840Z,16.00
2023-05-03T15:44:22.652Z,15.94
2023-05-03T15:49:27.754Z,15.54
2023-05-03T15:54:31.973Z,15.15
2023-05-03T15:59:36.367Z,15.09
2023-05-03T16:04:40.514Z,14.72
2023-05-03T16:09:44.233Z,14.64
2023-05-03T16:14:48.439Z,14.40
2023-05-03T16:19:52.368Z,14.50
2023-05-03T16:24:55.980Z,14.45
2023-05-03T16:30:00.273Z,14.15
2023-05-03T16:35:04.662Z,14.07
2023-05-03T16:40:11.949Z,13.97
2023-05-03T16:45:17.123Z,13.91
2023-05-03T16:50:21.414Z,13.71
